Terminal Aerodrome Forecast
Issued by NWS Cleveland, OH

Home | Current Version | Previous Version | Text Only | Print | Product List | Glossary Off
Versions: 1 2 3 4 5 6 7 8 9 10 11 12 13 14 15 16 17 18

000
FTUS41 KCLE 141100
TAFCAK
TAF
KCAK 141132Z 1412/1512 18018G28KT P6SM SCT060 OVC120
     FM141400 21024G36KT P6SM -SHRA SCT025 OVC050
      TEMPO 1416/1420 5SM -SHRA OVC025
     FM142000 21020G32KT P6SM -SHRA SCT015 OVC025
      TEMPO 1420/1423 4SM -SHRA BR OVC015
     FM142300 25015G25KT 6SM -SHRA VCTS SCT010CB OVC025
      TEMPO 1423/1501 4SM -SHRA BR OVC010
     FM150100 30012G20KT 5SM -DZ BR OVC003
     FM150600 32014G22KT P6SM OVC006=

USA.gov is the U.S. government's official web portal to all federal, state and local government web resources and services.